sensor_id;sensor_type;location;lat;lon;timestamp;temperature;humidity
69589;SHT31;56792;50.644;17.984;2022-08-01T00:02:35;14.03;79.90
69589;SHT31;56792;50.644;17.984;2022-08-01T00:15:26;13.81;80.13
69589;SHT31;56792;50.644;17.984;2022-08-01T00:22:25;13.74;80.19
69589;SHT31;56792;50.644;17.984;2022-08-01T00:24:59;13.72;80.21
69589;SHT31;56792;50.644;17.984;2022-08-01T00:27:32;13.70;80.23
69589;SHT31;56792;50.644;17.984;2022-08-01T00:30:08;13.69;80.29
69589;SHT31;56792;50.644;17.984;2022-08-01T00:35:55;13.64;80.11
69589;SHT31;56792;50.644;17.984;2022-08-01T00:38:29;13.60;80.09
69589;SHT31;56792;50.644;17.984;2022-08-01T00:47:47;13.56;80.21
69589;SHT31;56792;50.644;17.984;2022-08-01T00:59:08;13.46;80.22
69589;SHT31;56792;50.644;17.984;2022-08-01T01:02:03;13.43;80.10
69589;SHT31;56792;50.644;17.984;2022-08-01T01:07:24;13.35;80.32
69589;SHT31;56792;50.644;17.984;2022-08-01T01:13:45;13.31;80.30
69589;SHT31;56792;50.644;17.984;2022-08-01T01:16:29;13.25;80.60
69589;SHT31;56792;50.644;17.984;2022-08-01T01:19:09;13.18;80.80
69589;SHT31;56792;50.644;17.984;2022-08-01T01:22:13;13.17;80.80
69589;SHT31;56792;50.644;17.984;2022-08-01T02:04:16;12.81;82.50
69589;SHT31;56792;50.644;17.984;2022-08-01T02:06:51;12.82;82.50
69589;SHT31;56792;50.644;17.984;2022-08-01T02:09:23;12.79;82.53
69589;SHT31;56792;50.644;17.984;2022-08-01T02:11:54;12.77;82.66
69589;SHT31;56792;50.644;17.984;2022-08-01T02:14:26;12.76;82.62
69589;SHT31;56792;50.644;17.984;2022-08-01T02:16:59;12.77;82.56
69589;SHT31;56792;50.644;17.984;2022-08-01T02:19:33;12.76;82.60
69589;SHT31;56792;50.644;17.984;2022-08-01T02:22:09;12.78;82.52
69589;SHT31;56792;50.644;17.984;2022-08-01T02:24:52;12.81;82.53
69589;SHT31;56792;50.644;17.984;2022-08-01T02:52:21;12.83;83.00
69589;SHT31;56792;50.644;17.984;2022-08-01T02:59:16;12.81;83.30
69589;SHT31;56792;50.644;17.984;2022-08-01T03:08:00;12.76;83.77
69589;SHT31;56792;50.644;17.984;2022-08-01T03:10:35;12.74;83.87
69589;SHT31;56792;50.644;17.984;2022-08-01T03:13:09;12.75;83.89
69589;SHT31;56792;50.644;17.984;2022-08-01T03:23:54;12.85;83.49
69589;SHT31;56792;50.644;17.984;2022-08-01T03:31:15;12.89;83.19
69589;SHT31;56792;50.644;17.984;2022-08-01T03:38:03;12.97;83.22
69589;SHT31;56792;50.644;17.984;2022-08-01T03:40:43;13.00;83.22
69589;SHT31;56792;50.644;17.984;2022-08-01T03:43:30;13.03;83.30
69589;SHT31;56792;50.644;17.984;2022-08-01T03:49:22;13.13;83.52
69589;SHT31;56792;50.644;17.984;2022-08-01T03:51:56;13.17;83.42
69589;SHT31;56792;50.644;17.984;2022-08-01T03:54:34;13.23;83.57
69589;SHT31;56792;50.644;17.984;2022-08-01T03:57:10;13.26;83.57
69589;SHT31;56792;50.644;17.984;2022-08-01T03:59:41;13.31;83.76
69589;SHT31;56792;50.644;17.984;2022-08-01T04:02:15;13.37;83.87
69589;SHT31;56792;50.644;17.984;2022-08-01T04:04:48;13.44;83.97
69589;SHT31;56792;50.644;17.984;2022-08-01T04:07:22;13.50;84.05
69589;SHT31;56792;50.644;17.984;2022-08-01T04:09:54;13.55;84.10
69589;SHT31;56792;50.644;17.984;2022-08-01T04:12:24;13.61;84.10
69589;SHT31;56792;50.644;17.984;2022-08-01T04:14:53;13.68;84.18
69589;SHT31;56792;50.644;17.984;2022-08-01T04:20:38;13.79;84.20
69589;SHT31;56792;50.644;17.984;2022-08-01T04:23:11;13.84;84.22
69589;SHT31;56792;50.644;17.984;2022-08-01T04:25:47;13.88;84.20
69589;SHT31;56792;50.644;17.984;2022-08-01T04:28:53;13.94;84.20
69589;SHT31;56792;50.644;17.984;2022-08-01T04:31:28;14.01;84.20
69589;SHT31;56792;50.644;17.984;2022-08-01T04:34:04;14.06;84.23
69589;SHT31;56792;50.644;17.984;2022-08-01T04:36:41;14.13;84.29
69589;SHT31;56792;50.644;17.984;2022-08-01T04:39:17;14.19;84.39
69589;SHT31;56792;50.644;17.984;2022-08-01T04:41:53;14.26;84.40
69589;SHT31;56792;50.644;17.984;2022-08-01T04:44:28;14.33;84.45
69589;SHT31;56792;50.644;17.984;2022-08-01T04:47:04;14.43;84.31
69589;SHT31;56792;50.644;17.984;2022-08-01T04:49:38;14.53;84.30
69589;SHT31;56792;50.644;17.984;2022-08-01T04:52:15;14.66;84.25
69589;SHT31;56792;50.644;17.984;2022-08-01T04:54:48;14.79;84.07
69589;SHT31;56792;50.644;17.984;2022-08-01T04:57:18;14.93;83.87
69589;SHT31;56792;50.644;17.984;2022-08-01T05:02:55;15.25;83.63
69589;SHT31;56792;50.644;17.984;2022-08-01T05:05:25;15.39;83.40
69589;SHT31;56792;50.644;17.984;2022-08-01T05:07:56;15.53;83.31
69589;SHT31;56792;50.644;17.984;2022-08-01T05:10:27;15.69;83.08
69589;SHT31;56792;50.644;17.984;2022-08-01T05:12:57;15.85;82.85
69589;SHT31;56792;50.644;17.984;2022-08-01T05:15:29;16.00;82.70
69589;SHT31;56792;50.644;17.984;2022-08-01T05:17:58;16.14;82.52
69589;SHT31;56792;50.644;17.984;2022-08-01T05:23:31;16.46;82.13
69589;SHT31;56792;50.644;17.984;2022-08-01T05:26:03;16.60;81.67
69589;SHT31;56792;50.644;17.984;2022-08-01T05:28:38;16.74;81.26
69589;SHT31;56792;50.644;17.984;2022-08-01T05:31:10;16.84;80.85
69589;SHT31;56792;50.644;17.984;2022-08-01T05:33:52;16.90;80.61
69589;SHT31;56792;50.644;17.984;2022-08-01T05:36:22;16.97;80.62
69589;SHT31;56792;50.644;17.984;2022-08-01T05:42:58;17.11;80.27
69589;SHT31;56792;50.644;17.984;2022-08-01T05:45:31;17.19;80.08
69589;SHT31;56792;50.644;17.984;2022-08-01T05:48:20;17.28;79.90
69589;SHT31;56792;50.644;17.984;2022-08-01T05:51:10;17.38;79.38
69589;SHT31;56792;50.644;17.984;2022-08-01T05:53:59;17.46;78.70
69589;SHT31;56792;50.644;17.984;2022-08-01T05:56:34;17.58;78.62
69589;SHT31;56792;50.644;17.984;2022-08-01T05:59:07;17.77;78.52
69589;SHT31;56792;50.644;17.984;2022-08-01T06:01:37;17.93;77.95
69589;SHT31;56792;50.644;17.984;2022-08-01T06:04:08;18.10;77.65
69589;SHT31;56792;50.644;17.984;2022-08-01T06:06:38;18.24;76.94
69589;SHT31;56792;50.644;17.984;2022-08-01T06:09:08;18.38;76.88
69589;SHT31;56792;50.644;17.984;2022-08-01T06:11:38;18.54;76.50
69589;SHT31;56792;50.644;17.984;2022-08-01T06:14:08;18.67;76.06
69589;SHT31;56792;50.644;17.984;2022-08-01T06:16:39;18.82;76.02
69589;SHT31;56792;50.644;17.984;2022-08-01T06:19:09;18.99;75.80
69589;SHT31;56792;50.644;17.984;2022-08-01T06:21:39;19.17;75.10
69589;SHT31;56792;50.644;17.984;2022-08-01T06:24:09;19.33;74.77
69589;SHT31;56792;50.644;17.984;2022-08-01T06:26:40;19.52;74.40
69589;SHT31;56792;50.644;17.984;2022-08-01T06:29:21;19.70;73.85
69589;SHT31;56792;50.644;17.984;2022-08-01T06:31:52;19.92;73.54
69589;SHT31;56792;50.644;17.984;2022-08-01T06:34:30;20.19;73.12
69589;SHT31;56792;50.644;17.984;2022-08-01T06:37:01;20.41;72.61
69589;SHT31;56792;50.644;17.984;2022-08-01T06:39:38;20.61;72.53
69589;SHT31;56792;50.644;17.984;2022-08-01T06:42:08;20.68;71.00
69589;SHT31;56792;50.644;17.984;2022-08-01T06:44:38;20.67;70.63
69589;SHT31;56792;50.644;17.984;2022-08-01T06:47:08;20.60;69.52
69589;SHT31;56792;50.644;17.984;2022-08-01T06:52:53;20.58;69.83
69589;SHT31;56792;50.644;17.984;2022-08-01T06:55:44;20.65;69.18
69589;SHT31;56792;50.644;17.984;2022-08-01T06:58:30;20.64;68.42
69589;SHT31;56792;50.644;17.984;2022-08-01T07:01:21;20.61;68.24
69589;SHT31;56792;50.644;17.984;2022-08-01T07:04:11;20.57;68.18
69589;SHT31;56792;50.644;17.984;2022-08-01T07:06:40;20.55;68.71
69589;SHT31;56792;50.644;17.984;2022-08-01T07:09:13;20.60;68.30
69589;SHT31;56792;50.644;17.984;2022-08-01T08:00:26;21.59;66.42
69589;SHT31;56792;50.644;17.984;2022-08-01T14:10:51;28.76;47.57
69589;SHT31;56792;50.644;17.984;2022-08-01T14:13:34;28.81;47.34
69589;SHT31;56792;50.644;17.984;2022-08-01T14:54:13;25.71;64.24
69589;SHT31;56792;50.644;17.984;2022-08-01T14:57:03;25.63;64.71
69589;SHT31;56792;50.644;17.984;2022-08-01T15:07:43;25.38;67.29
69589;SHT31;56792;50.644;17.984;2022-08-01T15:13:57;25.41;67.46
69589;SHT31;56792;50.644;17.984;2022-08-01T15:17:13;25.41;68.14
69589;SHT31;56792;50.644;17.984;2022-08-01T15:20:09;25.43;68.88
69589;SHT31;56792;50.644;17.984;2022-08-01T15:22:51;25.57;69.17
69589;SHT31;56792;50.644;17.984;2022-08-01T15:25:40;25.82;69.74
69589;SHT31;56792;50.644;17.984;2022-08-01T15:32:10;26.22;69.35
69589;SHT31;56792;50.644;17.984;2022-08-01T15:50:14;26.01;67.91
69589;SHT31;56792;50.644;17.984;2022-08-01T16:01:12;25.92;67.58
69589;SHT31;56792;50.644;17.984;2022-08-01T16:04:01;25.91;67.35
69589;SHT31;56792;50.644;17.984;2022-08-01T16:06:46;25.82;67.13
69589;SHT31;56792;50.644;17.984;2022-08-01T16:09:36;25.70;67.58
69589;SHT31;56792;50.644;17.984;2022-08-01T16:12:20;25.63;68.28
69589;SHT31;56792;50.644;17.984;2022-08-01T16:15:10;25.60;68.82
69589;SHT31;56792;50.644;17.984;2022-08-01T16:18:00;25.60;68.95
69589;SHT31;56792;50.644;17.984;2022-08-01T16:20:50;25.51;69.64
69589;SHT31;56792;50.644;17.984;2022-08-01T16:23:37;25.43;69.89
69589;SHT31;56792;50.644;17.984;2022-08-01T16:26:18;25.37;70.37
69589;SHT31;56792;50.644;17.984;2022-08-01T16:53:21;24.73;72.83
69589;SHT31;56792;50.644;17.984;2022-08-01T17:08:30;24.72;71.83
69589;SHT31;56792;50.644;17.984;2022-08-01T17:11:04;24.74;72.11
69589;SHT31;56792;50.644;17.984;2022-08-01T17:21:10;24.77;72.90
69589;SHT31;56792;50.644;17.984;2022-08-01T17:53:54;23.67;76.26
69589;SHT31;56792;50.644;17.984;2022-08-01T17:56:24;23.60;75.94
69589;SHT31;56792;50.644;17.984;2022-08-01T18:02:16;23.40;75.32
69589;SHT31;56792;50.644;17.984;2022-08-01T18:13:36;23.12;76.72
69589;SHT31;56792;50.644;17.984;2022-08-01T18:16:28;23.06;76.60
69589;SHT31;56792;50.644;17.984;2022-08-01T18:23:28;22.85;74.87
69589;SHT31;56792;50.644;17.984;2022-08-01T18:34:47;22.55;75.41
69589;SHT31;56792;50.644;17.984;2022-08-01T18:41:44;22.37;76.19
69589;SHT31;56792;50.644;17.984;2022-08-01T18:48:25;22.21;76.69
69589;SHT31;56792;50.644;17.984;2022-08-01T18:55:23;22.05;77.29
69589;SHT31;56792;50.644;17.984;2022-08-01T18:58:19;22.03;77.05
69589;SHT31;56792;50.644;17.984;2022-08-01T19:13:48;21.69;76.30
69589;SHT31;56792;50.644;17.984;2022-08-01T19:31:40;21.31;77.00
69589;SHT31;56792;50.644;17.984;2022-08-01T19:34:20;21.40;76.72
69589;SHT31;56792;50.644;17.984;2022-08-01T20:08:27;20.50;77.91
69589;SHT31;56792;50.644;17.984;2022-08-01T20:35:35;19.95;78.39
69589;SHT31;56792;50.644;17.984;2022-08-01T20:38:16;20.06;78.35
69589;SHT31;56792;50.644;17.984;2022-08-01T20:40:54;20.13;78.25
69589;SHT31;56792;50.644;17.984;2022-08-01T20:58:52;19.75;79.05
69589;SHT31;56792;50.644;17.984;2022-08-01T21:01:31;19.79;79.17
69589;SHT31;56792;50.644;17.984;2022-08-01T21:04:10;19.90;79.07
69589;SHT31;56792;50.644;17.984;2022-08-01T21:07:00;19.87;79.20
